createdAt,value
2018-06-16T00:01:07.362Z,13.7
2018-06-16T00:02:07.243Z,13.7
2018-06-16T00:03:08.383Z,13.8
2018-06-16T00:04:08.681Z,13.8
2018-06-16T00:05:09.232Z,13.8
2018-06-16T00:06:10.126Z,13.8
2018-06-16T00:07:10.262Z,13.8
2018-06-16T00:08:10.165Z,13.9
2018-06-16T00:09:10.250Z,14
2018-06-16T00:10:11.349Z,14
2018-06-16T00:11:11.537Z,14
2018-06-16T00:12:11.427Z,13.9
2018-06-16T00:13:13.968Z,13.9
2018-06-16T00:14:14.363Z,13.8
2018-06-16T00:15:15.238Z,13.8
2018-06-16T00:16:15.112Z,13.8
2018-06-16T00:17:18.229Z,13.7
2018-06-16T00:18:24.692Z,13.7
2018-06-16T00:19:24.551Z,13.8
2018-06-16T00:20:24.644Z,13.7
2018-06-16T00:21:27.571Z,13.7
2018-06-16T00:22:27.471Z,13.7
2018-06-16T00:23:30.966Z,13.7
2018-06-16T00:24:34.220Z,13.7
2018-06-16T00:25:34.092Z,13.7
2018-06-16T00:26:33.955Z,13.6
2018-06-16T00:27:33.866Z,13.6
2018-06-16T00:28:36.805Z,13.5
2018-06-16T00:29:37.343Z,13.4
2018-06-16T00:30:41.171Z,13.4
2018-06-16T00:31:41.038Z,13.4
2018-06-16T00:32:46.592Z,13.4
2018-06-16T00:33:47.758Z,13.4
2018-06-16T00:34:48.162Z,13.4
2018-06-16T00:35:49.253Z,13.4
2018-06-16T00:36:52.069Z,13.4
2018-06-16T00:37:51.944Z,13.3
2018-06-16T00:38:52.831Z,13.4
2018-06-16T00:39:52.712Z,13.3
2018-06-16T00:40:52.583Z,13.4
2018-06-16T00:41:55.297Z,13.3
2018-06-16T00:42:56.238Z,13.3
2018-06-16T00:43:56.412Z,13.3
2018-06-16T00:44:57.153Z,13.4
2018-06-16T00:45:57.030Z,13.5
2018-06-16T00:47:00.019Z,13.4
2018-06-16T00:48:02.710Z,13.4
2018-06-16T00:49:05.609Z,13.3
2018-06-16T00:50:05.708Z,13.3
2018-06-16T00:51:06.262Z,13.3
2018-06-16T00:52:06.165Z,13.2
2018-06-16T00:53:08.765Z,13.2
2018-06-16T00:54:13.642Z,13.2
2018-06-16T00:55:20.837Z,13.2
2018-06-16T00:56:20.721Z,13.1
2018-06-16T00:57:20.622Z,13.1
2018-06-16T00:58:26.377Z,13.1
2018-06-16T00:59:26.272Z,13
2018-06-16T01:00:26.140Z,13.1
2018-06-16T01:01:26.906Z,13.1
2018-06-16T01:02:26.794Z,13
2018-06-16T01:03:29.708Z,13
2018-06-16T01:04:29.599Z,12.9
2018-06-16T01:05:40.315Z,12.9
2018-06-16T01:06:41.180Z,12.9
2018-06-16T01:07:44.034Z,12.9
2018-06-16T01:08:43.921Z,12.8
2018-06-16T01:09:44.031Z,12.8
2018-06-16T01:10:49.385Z,12.8
2018-06-16T01:11:53.154Z,12.8
2018-06-16T01:12:53.017Z,12.8
2018-06-16T01:13:55.479Z,12.7
2018-06-16T01:14:58.206Z,12.5
2018-06-16T01:15:59.746Z,12.6
2018-06-16T01:17:02.593Z,12.6
2018-06-16T01:18:02.495Z,12.6
2018-06-16T01:19:03.395Z,12.7
2018-06-16T01:20:03.301Z,12.6
2018-06-16T01:21:06.155Z,12.7
2018-06-16T01:22:08.813Z,12.7
2018-06-16T01:23:08.719Z,12.6
2018-06-16T01:24:11.564Z,12.7
2018-06-16T01:25:11.922Z,12.7
2018-06-16T01:26:12.426Z,12.7
2018-06-16T01:27:12.277Z,12.7
2018-06-16T01:28:14.994Z,12.8
2018-06-16T01:29:14.859Z,12.7
2018-06-16T01:30:18.647Z,12.7
2018-06-16T01:31:18.547Z,12.7
2018-06-16T01:32:18.888Z,12.6
2018-06-16T01:33:19.218Z,12.6
2018-06-16T01:34:19.792Z,12.5
2018-06-16T01:35:19.723Z,12.5
2018-06-16T01:36:20.047Z,12.5
2018-06-16T01:37:19.949Z,12.5
2018-06-16T01:38:19.841Z,12.5
2018-06-16T01:39:27.643Z,12.5
2018-06-16T01:40:28.016Z,12.5
2018-06-16T01:41:29.160Z,12.5
2018-06-16T01:42:29.026Z,12.5
2018-06-16T01:43:28.895Z,12.5
2018-06-16T01:44:28.773Z,12.5
2018-06-16T01:45:28.685Z,12.5
2018-06-16T01:46:29.205Z,12.5
2018-06-16T01:47:29.109Z,12.5
2018-06-16T01:48:29.015Z,12.5
2018-06-16T01:49:28.871Z,12.4
2018-06-16T01:50:29.002Z,12.3
2018-06-16T01:51:28.905Z,12.3
2018-06-16T01:52:28.813Z,12.3
2018-06-16T01:53:29.699Z,12.3
2018-06-16T01:54:29.561Z,12.3
2018-06-16T01:55:33.029Z,12.3
2018-06-16T01:56:34.008Z,12.3
2018-06-16T01:57:33.870Z,12.3
2018-06-16T01:58:33.765Z,12.2
2018-06-16T01:59:36.834Z,12.3
2018-06-16T02:00:36.728Z,12.3
2018-06-16T02:01:37.623Z,12.2
2018-06-16T02:02:37.491Z,12.2
2018-06-16T02:03:37.369Z,12.2
2018-06-16T02:04:40.158Z,12.2
2018-06-16T02:05:40.099Z,12.2
2018-06-16T02:06:43.673Z,12.1
2018-06-16T02:07:44.570Z,12.1
2018-06-16T02:08:44.459Z,12.1
2018-06-16T02:09:44.548Z,12.1
2018-06-16T02:10:44.419Z,12.1
2018-06-16T02:11:49.972Z,12.2
2018-06-16T02:12:53.822Z,12.2
2018-06-16T02:13:53.959Z,12.3
2018-06-16T02:14:53.841Z,12.2
2018-06-16T02:15:53.943Z,12.2
2018-06-16T02:16:57.508Z,12.2
2018-06-16T02:17:57.445Z,12.1
2018-06-16T02:18:57.361Z,12.1
2018-06-16T02:19:57.272Z,12.2
2018-06-16T02:20:57.117Z,12.1
2018-06-16T02:21:57.468Z,12.1
2018-06-16T02:22:57.338Z,12.2
2018-06-16T02:23:57.245Z,12.2
2018-06-16T02:24:57.168Z,12.2
2018-06-16T02:28:54.600Z,12.3
2018-06-16T02:29:54.479Z,12.3
2018-06-16T02:30:54.386Z,12.3
2018-06-16T02:31:55.285Z,12.2
2018-06-16T02:32:58.201Z,12.3
2018-06-16T02:34:03.140Z,12.3
2018-06-16T02:35:06.039Z,12.3
2018-06-16T02:36:06.106Z,12.3
2018-06-16T02:37:08.813Z,12.2
2018-06-16T02:38:08.721Z,12.2
2018-06-16T02:39:09.294Z,12.3
2018-06-16T02:40:14.827Z,12.2
2018-06-16T02:41:14.717Z,12.2
2018-06-16T02:42:14.619Z,12.2
2018-06-16T02:43:15.518Z,12.1
2018-06-16T02:44:18.007Z,12
2018-06-16T02:45:17.895Z,12
2018-06-16T02:46:20.695Z,12
2018-06-16T02:47:20.589Z,12
2018-06-16T02:48:20.474Z,12.1
2018-06-16T02:49:23.691Z,12.1
2018-06-16T02:50:23.834Z,12
2018-06-16T02:51:24.164Z,12.1
2018-06-16T02:52:29.780Z,12.1
2018-06-16T02:53:32.729Z,12
2018-06-16T02:54:33.660Z,11.9
2018-06-16T02:55:37.528Z,11.9
2018-06-16T02:56:37.442Z,12
2018-06-16T02:57:39.940Z,12
2018-06-16T02:58:42.406Z,12
2018-06-16T02:59:42.706Z,11.9
2018-06-16T03:00:45.497Z,11.8
2018-06-16T03:01:46.571Z,11.8
2018-06-16T03:02:59.542Z,11.8
2018-06-16T03:03:59.437Z,11.8
2018-06-16T03:04:59.328Z,11.8
2018-06-16T03:06:00.232Z,11.7
2018-06-16T03:07:09.301Z,11.7
2018-06-16T03:08:09.182Z,11.7
2018-06-16T03:09:09.075Z,11.7
2018-06-16T03:10:10.450Z,11.7
2018-06-16T03:11:10.324Z,11.8
2018-06-16T03:12:14.145Z,11.8
2018-06-16T03:13:14.009Z,11.8
2018-06-16T03:14:16.809Z,11.7
2018-06-16T03:15:17.183Z,11.7
2018-06-16T03:16:17.093Z,11.7
2018-06-16T03:17:21.892Z,11.7
2018-06-16T03:18:24.536Z,11.7
2018-06-16T03:19:27.295Z,11.8
2018-06-16T03:20:32.663Z,11.8
2018-06-16T03:21:32.978Z,11.7
2018-06-16T03:22:32.845Z,11.7
2018-06-16T03:23:32.820Z,11.7
2018-06-16T03:24:32.901Z,11.7
2018-06-16T03:25:32.787Z,11.7
2018-06-16T03:26:32.683Z,11.8
2018-06-16T03:27:33.560Z,11.7
2018-06-16T03:28:33.447Z,11.6
2018-06-16T03:29:36.294Z,11.6
2018-06-16T03:30:36.585Z,11.6
2018-06-16T03:31:37.485Z,11.6
2018-06-16T03:32:37.383Z,11.6
2018-06-16T03:33:38.467Z,11.5
2018-06-16T03:34:38.629Z,11.6
2018-06-16T03:35:38.528Z,11.5
2018-06-16T03:36:38.412Z,11.6
2018-06-16T03:37:42.784Z,11.5
2018-06-16T03:38:43.654Z,11.5
2018-06-16T03:39:43.735Z,11.6
2018-06-16T03:40:45.244Z,11.8
2018-06-16T03:41:48.910Z,11.8
2018-06-16T03:42:48.984Z,11.8
2018-06-16T03:43:49.088Z,11.7
2018-06-16T03:44:48.971Z,11.7
2018-06-16T03:45:49.181Z,11.6
2018-06-16T03:46:50.107Z,11.5
2018-06-16T03:47:52.558Z,11.6
2018-06-16T03:48:53.442Z,11.7
2018-06-16T03:49:53.566Z,11.7
2018-06-16T03:50:53.918Z,11.7
2018-06-16T03:51:57.375Z,11.7
2018-06-16T03:52:57.330Z,11.8
2018-06-16T03:53:57.232Z,11.8
2018-06-16T03:54:59.904Z,11.8
2018-06-16T03:55:59.807Z,11.8
2018-06-16T03:57:00.368Z,11.9
2018-06-16T03:58:00.482Z,11.9
2018-06-16T03:59:00.349Z,12
2018-06-16T04:00:03.370Z,12
2018-06-16T04:01:07.653Z,12
2018-06-16T04:02:07.513Z,12
2018-06-16T04:03:08.633Z,12
2018-06-16T04:04:09.554Z,12
2018-06-16T04:05:09.675Z,12
2018-06-16T04:06:09.565Z,12
2018-06-16T04:07:09.445Z,12.1
2018-06-16T04:08:09.330Z,12
2018-06-16T04:09:10.249Z,12
2018-06-16T04:10:10.245Z,12.1
2018-06-16T04:11:10.849Z,12
2018-06-16T04:12:10.715Z,12
2018-06-16T04:13:20.171Z,12
2018-06-16T04:14:21.102Z,11.9
2018-06-16T04:15:23.645Z,12
2018-06-16T04:16:23.530Z,12
2018-06-16T04:17:23.406Z,12
2018-06-16T04:18:23.273Z,12
2018-06-16T04:19:26.181Z,12
2018-06-16T04:20:26.067Z,12
2018-06-16T04:21:26.626Z,12
2018-06-16T04:22:29.569Z,12
2018-06-16T04:23:29.495Z,12
2018-06-16T04:24:30.043Z,12
2018-06-16T04:25:29.918Z,12
2018-06-16T04:26:31.066Z,12
2018-06-16T04:27:30.934Z,11.9
2018-06-16T04:28:31.830Z,12
2018-06-16T04:29:31.741Z,12
2018-06-16T04:30:31.621Z,12.1
2018-06-16T04:31:32.957Z,12
2018-06-16T04:32:32.864Z,11.9
2018-06-16T04:33:32.773Z,12
2018-06-16T04:34:32.664Z,12
2018-06-16T04:35:32.585Z,12
2018-06-16T04:36:35.865Z,12.1
2018-06-16T04:37:35.774Z,12.1
2018-06-16T04:38:35.642Z,12.1
2018-06-16T04:39:35.533Z,12.2
2018-06-16T04:40:35.434Z,12.3
2018-06-16T04:41:38.028Z,12.3
2018-06-16T04:42:37.935Z,12.4
2018-06-16T04:43:37.792Z,12.4
2018-06-16T04:44:40.508Z,12.4
2018-06-16T04:45:41.105Z,12.4
2018-06-16T04:46:41.577Z,12.4
2018-06-16T04:47:41.527Z,12.4
2018-06-16T04:48:42.621Z,12.4
2018-06-16T04:49:45.517Z,12.4
2018-06-16T04:50:45.448Z,12.4
2018-06-16T04:51:45.775Z,12.4
2018-06-16T04:52:45.686Z,12.4
2018-06-16T04:53:45.561Z,12.4
2018-06-16T04:54:45.478Z,12.5
2018-06-16T04:55:45.344Z,12.4
2018-06-16T04:56:45.238Z,12.4
2018-06-16T04:57:45.332Z,12.4
2018-06-16T04:58:45.197Z,12.5
2018-06-16T04:59:45.060Z,12.5
2018-06-16T05:00:44.937Z,12.5
2018-06-16T05:01:45.308Z,12.5
2018-06-16T05:02:45.181Z,12.5
2018-06-16T05:03:45.052Z,12.5
2018-06-16T05:04:48.091Z,12.6
2018-06-16T05:05:47.958Z,12.6
2018-06-16T05:06:47.855Z,12.7
2018-06-16T05:07:48.747Z,12.7
2018-06-16T05:08:48.650Z,12.9
2018-06-16T05:09:48.509Z,12.9
2018-06-16T05:10:48.375Z,12.9
2018-06-16T05:11:51.545Z,12.9
2018-06-16T05:12:51.439Z,13
2018-06-16T05:13:51.318Z,13
2018-06-16T05:14:51.228Z,13
2018-06-16T05:15:51.335Z,13.1
2018-06-16T05:16:51.269Z,13.1
2018-06-16T05:17:51.246Z,13.1
2018-06-16T05:18:51.139Z,13.2
2018-06-16T05:19:53.918Z,13.3
2018-06-16T05:20:53.782Z,13.3
2018-06-16T05:21:54.471Z,13.3
2018-06-16T05:22:54.479Z,13.4
2018-06-16T05:23:54.375Z,13.4
2018-06-16T05:24:54.255Z,13.5
2018-06-16T05:25:54.159Z,13.6
2018-06-16T05:26:54.043Z,13.7
2018-06-16T05:27:54.133Z,13.9
2018-06-16T05:28:54.057Z,14
2018-06-16T05:29:54.978Z,14.2
2018-06-16T05:30:54.845Z,14.4
2018-06-16T05:31:55.592Z,14.6
2018-06-16T05:32:55.672Z,14.7
2018-06-16T05:33:55.659Z,14.9
2018-06-16T05:34:56.000Z,15.1
2018-06-16T05:35:55.880Z,15.3
2018-06-16T05:36:55.789Z,15.6
2018-06-16T05:37:55.723Z,15.8
2018-06-16T05:38:55.648Z,16
2018-06-16T05:39:55.505Z,16.2
2018-06-16T05:40:55.400Z,16.4
2018-06-16T05:41:55.932Z,16.5
2018-06-16T05:42:55.854Z,16.8
2018-06-16T05:43:55.703Z,17
2018-06-16T05:44:55.590Z,17.1
2018-06-16T05:45:55.464Z,17.3
2018-06-16T05:46:55.357Z,17.4
2018-06-16T05:48:01.000Z,17.4
2018-06-16T05:49:00.872Z,17.6
2018-06-16T05:50:00.773Z,17.8
2018-06-16T05:51:02.622Z,17.7
2018-06-16T05:52:03.913Z,17.8
2018-06-16T05:53:03.790Z,17.7
2018-06-16T05:54:03.934Z,17.6
2018-06-16T05:55:04.124Z,17.6
2018-06-16T05:56:04.002Z,17.6
2018-06-16T05:57:04.913Z,17.8
2018-06-16T05:58:04.801Z,17.9
2018-06-16T05:59:04.673Z,18.1
2018-06-16T06:00:04.584Z,18.4
2018-06-16T06:01:04.483Z,18.4
2018-06-16T06:02:04.813Z,18.5
2018-06-16T06:03:04.692Z,18.7
2018-06-16T06:04:04.643Z,18.7
2018-06-16T06:05:07.132Z,18.8
2018-06-16T06:06:07.038Z,18.9
2018-06-16T06:07:06.942Z,19.1
2018-06-16T06:08:06.838Z,19.3
2018-06-16T06:09:07.716Z,19.3
2018-06-16T06:10:07.629Z,19.4
2018-06-16T06:11:07.524Z,19.6
2018-06-16T06:12:07.830Z,19.8
2018-06-16T06:13:07.727Z,19.7
2018-06-16T06:14:10.712Z,19.6
2018-06-16T06:15:10.650Z,19.3
2018-06-16T06:16:10.528Z,19.3
2018-06-16T06:17:10.430Z,19.5
2018-06-16T06:18:10.304Z,19.6
2018-06-16T06:19:13.962Z,19.5
2018-06-16T06:20:13.861Z,19.6
2018-06-16T06:21:13.777Z,19.9
2018-06-16T06:22:14.068Z,19.9
2018-06-16T06:23:14.165Z,19.9
2018-06-16T06:24:14.047Z,19.9
2018-06-16T06:25:14.167Z,20.1
2018-06-16T06:26:14.066Z,20
2018-06-16T06:27:13.953Z,20.3
2018-06-16T06:28:13.845Z,20.4
2018-06-16T06:29:13.725Z,20.6
2018-06-16T06:30:13.610Z,20.4
2018-06-16T06:31:13.993Z,20.3
2018-06-16T06:32:15.329Z,20.5
2018-06-16T06:33:15.262Z,20.8
2018-06-16T06:34:15.159Z,20.8
2018-06-16T06:35:15.055Z,20.6
2018-06-16T06:36:17.756Z,20.4
2018-06-16T06:37:17.900Z,20.5
2018-06-16T06:38:18.337Z,20.7
2018-06-16T06:39:18.222Z,20.9
2018-06-16T06:40:18.165Z,20.8
2018-06-16T06:41:18.063Z,20.6
2018-06-16T06:42:18.590Z,20.6
2018-06-16T06:43:18.781Z,20.9
2018-06-16T06:44:18.733Z,21.2
2018-06-16T06:45:21.446Z,21.4
2018-06-16T06:46:21.403Z,21.7
2018-06-16T06:47:21.295Z,21.7
2018-06-16T06:48:21.195Z,21.9
2018-06-16T06:49:21.080Z,21.8
2018-06-16T06:50:21.027Z,21.7
2018-06-16T06:51:20.884Z,21.5
2018-06-16T06:52:21.413Z,21.6
2018-06-16T06:53:21.285Z,22
2018-06-16T06:54:21.168Z,21.7
2018-06-16T06:55:21.266Z,21.6
2018-06-16T06:56:21.177Z,21.3
2018-06-16T06:57:21.111Z,21.4
2018-06-16T06:58:21.229Z,21.8
2018-06-16T06:59:21.119Z,22
2018-06-16T07:00:21.209Z,22
2018-06-16T07:01:21.098Z,21.7
2018-06-16T07:02:22.077Z,21.6
2018-06-16T07:03:22.168Z,21.6
2018-06-16T07:04:22.288Z,21.8
2018-06-16T07:05:22.156Z,22.1
2018-06-16T07:06:22.272Z,22.2
2018-06-16T07:07:22.848Z,22.1
2018-06-16T07:08:22.753Z,21.8
2018-06-16T07:09:25.798Z,22.2
2018-06-16T07:10:25.863Z,22.6
2018-06-16T07:11:30.760Z,22.9
2018-06-16T07:12:31.090Z,22.9
2018-06-16T07:13:31.241Z,22.9
2018-06-16T07:14:31.130Z,22.9
2018-06-16T07:15:31.006Z,22.6
2018-06-16T07:16:31.098Z,22.5
2018-06-16T07:17:30.983Z,22.8
2018-06-16T07:18:31.554Z,23.2
2018-06-16T07:19:31.649Z,23.3
2018-06-16T07:20:31.524Z,23.2
2018-06-16T07:21:31.630Z,23.3
2018-06-16T07:22:31.918Z,23.1
2018-06-16T07:23:31.910Z,23.1
2018-06-16T07:24:32.067Z,23
2018-06-16T07:25:31.940Z,22.8
2018-06-16T07:26:31.858Z,22.8
2018-06-16T07:27:31.747Z,22.7
2018-06-16T07:28:31.693Z,23
2018-06-16T07:29:31.583Z,23.3
2018-06-16T07:30:31.448Z,23.7
2018-06-16T07:31:31.329Z,23.7
2018-06-16T07:32:31.841Z,23.5
2018-06-16T07:33:31.734Z,24
2018-06-16T07:34:31.616Z,24.3
2018-06-16T07:35:31.483Z,24.4
2018-06-16T07:36:32.383Z,24.3
2018-06-16T07:37:32.258Z,24.4
2018-06-16T07:38:32.156Z,24.2
2018-06-16T07:39:32.270Z,24
2018-06-16T07:40:33.160Z,24
2018-06-16T07:41:33.164Z,24.3
2018-06-16T07:42:33.873Z,24.5
2018-06-16T07:43:33.790Z,24
2018-06-16T07:44:33.685Z,24.1
2018-06-16T07:45:33.580Z,23.9
2018-06-16T07:46:33.469Z,23.7
2018-06-16T07:47:33.351Z,23.7
2018-06-16T07:48:33.273Z,23.7
2018-06-16T07:49:33.150Z,23.6
2018-06-16T07:50:33.042Z,23.7
2018-06-16T07:51:32.943Z,23.9
2018-06-16T07:52:39.124Z,23.8
2018-06-16T07:53:39.016Z,24.1
2018-06-16T07:54:38.946Z,23.8
2018-06-16T07:55:38.836Z,23.8
2018-06-16T07:56:38.868Z,23.8
2018-06-16T07:57:38.855Z,23.7
2018-06-16T07:58:38.744Z,23.9
2018-06-16T07:59:38.626Z,24
2018-06-16T08:00:38.529Z,24.1
2018-06-16T08:01:38.439Z,23.8
2018-06-16T08:02:39.763Z,23.9
2018-06-16T08:03:39.651Z,23.6
2018-06-16T08:04:39.602Z,23.7
2018-06-16T08:05:39.480Z,24.1
2018-06-16T08:06:39.352Z,24
2018-06-16T08:07:39.289Z,23.9
2018-06-16T08:08:39.156Z,24.1
2018-06-16T08:09:39.019Z,24
2018-06-16T08:10:41.470Z,23.8
2018-06-16T08:11:41.588Z,23.8
2018-06-16T08:12:47.502Z,24.1
2018-06-16T08:13:47.478Z,23.9
2018-06-16T08:14:47.360Z,23.8
2018-06-16T08:15:47.256Z,23.9
2018-06-16T08:16:48.152Z,24.2
2018-06-16T08:17:48.036Z,24.1
2018-06-16T08:18:47.923Z,24.1
2018-06-16T08:19:47.794Z,24.5
2018-06-16T08:20:47.684Z,24.5
2018-06-16T08:21:48.217Z,24.4
2018-06-16T08:22:48.501Z,24.3
2018-06-16T08:23:48.387Z,24.2
2018-06-16T08:24:48.486Z,24
2018-06-16T08:25:48.391Z,23.7
2018-06-16T08:26:48.297Z,23.9
2018-06-16T08:27:48.856Z,24.1
2018-06-16T08:28:48.734Z,24.4
2018-06-16T08:29:48.599Z,24.3
2018-06-16T08:30:51.222Z,24.1
2018-06-16T08:31:51.134Z,24.3
2018-06-16T08:32:51.415Z,24.4
2018-06-16T08:33:51.305Z,24.6
2018-06-16T08:34:51.481Z,24.2
2018-06-16T08:35:51.601Z,24.4
2018-06-16T08:36:51.494Z,24.5
2018-06-16T08:37:51.513Z,24.8
2018-06-16T08:38:51.587Z,24.6
2018-06-16T08:39:51.626Z,24.6
2018-06-16T08:40:51.515Z,24.5
2018-06-16T08:41:51.398Z,24.6
2018-06-16T08:42:54.326Z,24.5
2018-06-16T08:43:54.210Z,24.4
2018-06-16T08:44:54.079Z,24.5
2018-06-16T08:45:56.585Z,24.4
2018-06-16T08:46:56.503Z,24
2018-06-16T08:47:56.396Z,24
2018-06-16T08:49:00.225Z,24.4
2018-06-16T08:50:00.145Z,24.6
2018-06-16T08:51:00.047Z,24.4
2018-06-16T08:51:59.951Z,24.4
2018-06-16T08:53:00.277Z,24.5
2018-06-16T08:54:00.160Z,24.6
2018-06-16T08:55:00.091Z,24.7
2018-06-16T08:55:59.959Z,24.7
2018-06-16T08:56:59.851Z,24.7
2018-06-16T08:57:59.749Z,24.6
2018-06-16T08:58:59.646Z,24.5
2018-06-16T08:59:59.536Z,24.4
2018-06-16T09:00:59.421Z,24.4
2018-06-16T09:01:59.311Z,24.4
2018-06-16T09:02:59.589Z,24.6
2018-06-16T09:04:02.091Z,24.5
2018-06-16T09:05:01.990Z,24.7
2018-06-16T09:06:01.875Z,24.6
2018-06-16T09:07:04.431Z,24.9
2018-06-16T09:08:04.332Z,25.1
2018-06-16T09:09:04.227Z,24.8
2018-06-16T09:10:04.106Z,24.8
2018-06-16T09:11:05.012Z,24.9
2018-06-16T09:12:04.889Z,24.7
2018-06-16T09:13:05.228Z,24.7
2018-06-16T09:14:05.111Z,24.8
2018-06-16T09:15:05.056Z,24.8
2018-06-16T09:16:04.947Z,24.8
2018-06-16T09:17:04.831Z,24.6
2018-06-16T09:18:04.709Z,24.3
2018-06-16T09:19:04.595Z,24.5
2018-06-16T09:20:04.498Z,24.6
2018-06-16T09:21:04.411Z,24.7
2018-06-16T09:22:04.284Z,24.6
2018-06-16T09:23:04.864Z,24.2
2018-06-16T09:24:04.752Z,24.1
2018-06-16T09:25:04.687Z,24.1
2018-06-16T09:26:04.576Z,24
2018-06-16T09:27:04.458Z,23.9
2018-06-16T09:28:04.628Z,23.9
2018-06-16T09:29:04.890Z,23.9
2018-06-16T09:30:04.778Z,24.1
2018-06-16T09:31:04.664Z,24
2018-06-16T09:32:04.540Z,24.1
2018-06-16T09:33:13.430Z,24
2018-06-16T09:34:13.315Z,24
2018-06-16T09:35:13.223Z,23.9
2018-06-16T09:36:13.199Z,23.8
2018-06-16T09:37:13.336Z,24.1
2018-06-16T09:38:13.207Z,24.1
2018-06-16T09:39:13.085Z,24.2
2018-06-16T09:40:12.975Z,24.2
2018-06-16T09:41:12.873Z,24.5
2018-06-16T09:42:12.755Z,24.7
2018-06-16T09:43:13.095Z,24.8
2018-06-16T09:44:13.007Z,24.8
2018-06-16T09:45:12.922Z,24.6
2018-06-16T09:46:12.823Z,24.4
2018-06-16T09:47:12.688Z,24.3
2018-06-16T09:48:12.716Z,24.4
2018-06-16T09:49:12.918Z,24.5
2018-06-16T09:50:12.821Z,24.4
2018-06-16T09:51:12.708Z,24.5
2018-06-16T09:52:12.575Z,24.3
2018-06-16T09:53:12.907Z,24.4
2018-06-16T09:54:12.772Z,24.3
2018-06-16T09:55:12.683Z,23.8
2018-06-16T09:56:12.593Z,23.7
2018-06-16T09:57:12.500Z,23.8
2018-06-16T09:58:12.362Z,23.9
2018-06-16T09:59:12.238Z,23.9
2018-06-16T10:00:12.141Z,23.9
2018-06-16T10:01:12.254Z,24.1
2018-06-16T10:02:12.171Z,24.1
2018-06-16T10:03:12.537Z,24.1
2018-06-16T10:04:12.595Z,24
2018-06-16T10:05:12.469Z,23.6
2018-06-16T10:06:12.355Z,23.7
2018-06-16T10:07:12.265Z,23.8
2018-06-16T10:08:12.148Z,23.9
2018-06-16T10:09:12.011Z,23.9
2018-06-16T10:10:11.900Z,23.9
2018-06-16T10:11:12.037Z,24.1
2018-06-16T10:12:12.130Z,24
2018-06-16T10:13:12.426Z,24.2
2018-06-16T10:14:22.530Z,24.2
2018-06-16T10:15:22.634Z,24
2018-06-16T10:16:22.508Z,23.9
2018-06-16T10:17:22.401Z,23.7
2018-06-16T10:18:22.292Z,23.8
2018-06-16T10:19:22.196Z,23.9
2018-06-16T10:20:22.096Z,24.1
2018-06-16T10:21:22.266Z,24.2
2018-06-16T10:22:22.407Z,24.3
2018-06-16T10:23:22.734Z,24.3
2018-06-16T10:24:22.606Z,24.2
2018-06-16T10:25:22.467Z,24.4
2018-06-16T10:26:22.348Z,24.3
2018-06-16T10:27:22.464Z,24
2018-06-16T10:28:22.327Z,23.9
2018-06-16T10:29:22.198Z,23.6
2018-06-16T10:30:22.084Z,23.8
2018-06-16T10:31:21.971Z,24
2018-06-16T10:32:21.880Z,23.9
2018-06-16T10:33:22.248Z,23.8
2018-06-16T10:34:22.132Z,23.6
2018-06-16T10:35:25.757Z,23.5
2018-06-16T10:36:25.822Z,23.7
2018-06-16T10:37:26.281Z,23.6
2018-06-16T10:38:26.168Z,23.4
2018-06-16T10:39:26.302Z,23.5
2018-06-16T10:40:26.185Z,23.7
2018-06-16T10:41:26.286Z,23.7
2018-06-16T10:42:26.383Z,23.6
2018-06-16T10:43:26.739Z,23.3
2018-06-16T10:44:26.820Z,23
2018-06-16T10:45:26.752Z,23.2
2018-06-16T10:46:26.647Z,23.2
2018-06-16T10:47:26.523Z,23.3
2018-06-16T10:48:26.427Z,23.4
2018-06-16T10:49:26.298Z,23.3
2018-06-16T10:50:26.175Z,23.4
2018-06-16T10:51:26.077Z,23.5
2018-06-16T10:52:25.961Z,23.3
2018-06-16T10:53:26.285Z,23.2
2018-06-16T10:54:26.463Z,23.4
2018-06-16T10:55:26.320Z,23.5
2018-06-16T10:56:26.213Z,23.6
2018-06-16T10:57:26.092Z,23.5
2018-06-16T10:58:25.983Z,23.3
2018-06-16T10:59:26.107Z,23.3
2018-06-16T11:00:26.397Z,23.4
2018-06-16T11:01:26.453Z,23.4
2018-06-16T11:02:26.334Z,23.5
2018-06-16T11:03:26.616Z,23.2
2018-06-16T11:04:26.495Z,23.1
2018-06-16T11:05:29.382Z,23.1
2018-06-16T11:06:29.299Z,23.2
2018-06-16T11:07:29.188Z,23.3
2018-06-16T11:08:29.070Z,23.3
2018-06-16T11:09:28.979Z,23.4
2018-06-16T11:10:28.870Z,23.5
2018-06-16T11:11:28.746Z,23.3
2018-06-16T11:12:28.626Z,23.4
2018-06-16T11:13:28.981Z,23.4
2018-06-16T11:14:28.871Z,23.3
2018-06-16T11:15:28.752Z,23.4
2018-06-16T11:16:28.859Z,23.3
2018-06-16T11:17:28.753Z,23.5
2018-06-16T11:18:28.637Z,23.4
2018-06-16T11:19:28.515Z,23.4
2018-06-16T11:20:28.430Z,23.5
2018-06-16T11:21:28.308Z,23.4
2018-06-16T11:22:28.214Z,23.5
2018-06-16T11:23:28.749Z,23.4
2018-06-16T11:24:28.628Z,23.5
2018-06-16T11:25:28.524Z,23.5
2018-06-16T11:26:28.412Z,23.4
2018-06-16T11:27:28.294Z,23.5
2018-06-16T11:28:28.172Z,23.4
2018-06-16T11:29:28.064Z,23.4
2018-06-16T11:30:28.103Z,23.4
2018-06-16T11:31:28.456Z,23.4
2018-06-16T11:32:28.324Z,23.4
2018-06-16T11:33:28.641Z,23.4
2018-06-16T11:34:28.752Z,23.3
2018-06-16T11:35:28.616Z,23.2
2018-06-16T11:36:28.506Z,23.2
2018-06-16T11:37:28.382Z,23.3
2018-06-16T11:38:28.356Z,23.5
2018-06-16T11:39:28.241Z,23.5
2018-06-16T11:40:28.134Z,23.6
2018-06-16T11:41:31.619Z,23.6
2018-06-16T11:42:31.488Z,23.6
2018-06-16T11:43:31.997Z,23.7
2018-06-16T11:44:31.893Z,23.6
2018-06-16T11:45:31.765Z,23.5
2018-06-16T11:46:31.661Z,23.3
2018-06-16T11:47:31.558Z,23.3
2018-06-16T11:48:31.435Z,23.3
2018-06-16T11:49:31.310Z,23.4
2018-06-16T11:50:31.187Z,23.4
2018-06-16T11:51:31.085Z,23.1
2018-06-16T11:52:30.973Z,23.2
2018-06-16T11:53:31.264Z,23.3
2018-06-16T11:54:31.135Z,23.1
2018-06-16T11:55:31.001Z,23.2
2018-06-16T11:56:30.878Z,23.1
2018-06-16T11:57:30.766Z,23.1
2018-06-16T11:58:30.922Z,23.1
2018-06-16T11:59:30.792Z,23.1
2018-06-16T12:00:30.698Z,23.2
2018-06-16T12:01:30.590Z,23.3
2018-06-16T12:02:30.482Z,23.3
2018-06-16T12:03:30.928Z,23.2
2018-06-16T12:04:30.810Z,23.1
2018-06-16T12:05:30.703Z,22.9
2018-06-16T12:06:30.587Z,22.9
2018-06-16T12:07:30.466Z,23.1
2018-06-16T12:08:30.378Z,23.1
2018-06-16T12:09:30.265Z,22.9
2018-06-16T12:10:30.154Z,22.9
2018-06-16T12:11:30.052Z,23
2018-06-16T12:12:30.157Z,22.9
2018-06-16T12:13:31.432Z,23
2018-06-16T12:14:31.306Z,23
2018-06-16T12:15:31.177Z,23.2
2018-06-16T12:16:31.067Z,23.3
2018-06-16T12:17:30.925Z,23
2018-06-16T12:18:30.842Z,22.9
2018-06-16T12:19:30.722Z,22.8
2018-06-16T12:20:30.591Z,22.6
2018-06-16T12:21:30.490Z,22.7
2018-06-16T12:22:30.360Z,22.8
2018-06-16T12:23:39.484Z,22.8
2018-06-16T12:24:39.389Z,22.8
2018-06-16T12:25:39.268Z,22.8
2018-06-16T12:26:39.146Z,22.8
2018-06-16T12:27:39.020Z,22.8
2018-06-16T12:28:38.926Z,22.9
2018-06-16T12:29:39.124Z,23
2018-06-16T12:30:39.228Z,23
2018-06-16T12:31:39.101Z,23
2018-06-16T12:32:38.991Z,23.1
2018-06-16T12:33:39.524Z,23.1
2018-06-16T12:34:39.418Z,23.2
2018-06-16T12:35:39.288Z,23.2
2018-06-16T12:36:39.174Z,23.1
2018-06-16T12:37:48.020Z,23.1
2018-06-16T12:38:47.951Z,23
2018-06-16T12:39:48.259Z,23
2018-06-16T12:40:48.135Z,23.1
2018-06-16T12:41:48.029Z,23.1
2018-06-16T12:42:47.899Z,22.8
2018-06-16T12:43:48.180Z,22.9
2018-06-16T12:44:48.079Z,23
2018-06-16T12:45:47.970Z,22.9
2018-06-16T12:46:47.858Z,22.8
2018-06-16T12:47:47.744Z,22.6
2018-06-16T12:48:47.637Z,22.6
2018-06-16T12:49:47.524Z,22.6
2018-06-16T12:50:47.789Z,22.5
2018-06-16T12:51:47.777Z,22.5
2018-06-16T12:52:47.684Z,22.6
2018-06-16T12:53:48.000Z,22.7
2018-06-16T12:54:47.910Z,22.6
2018-06-16T12:55:47.798Z,22.7
2018-06-16T12:56:47.846Z,22.8
2018-06-16T12:57:47.956Z,22.8
2018-06-16T12:58:47.978Z,22.9
2018-06-16T12:59:47.881Z,23
2018-06-16T13:00:47.762Z,23
2018-06-16T13:01:47.641Z,23.1
2018-06-16T13:02:47.505Z,23.1
2018-06-16T13:03:47.810Z,23.2
2018-06-16T13:04:47.721Z,23.3
2018-06-16T13:05:47.603Z,23
2018-06-16T13:06:47.474Z,22.8
2018-06-16T13:07:48.340Z,22.9
2018-06-16T13:08:48.217Z,23
2018-06-16T13:09:49.098Z,23.1
2018-06-16T13:10:48.976Z,23.1
2018-06-16T13:11:48.838Z,23.2
2018-06-16T13:12:48.712Z,23.2
2018-06-16T13:13:49.000Z,23.3
2018-06-16T13:14:48.898Z,23.3
2018-06-16T13:15:48.769Z,23.3
2018-06-16T13:16:48.662Z,23.3
2018-06-16T13:17:48.556Z,23.2
2018-06-16T13:18:48.438Z,23.2
2018-06-16T13:19:48.336Z,23.2
2018-06-16T13:20:48.220Z,23
2018-06-16T13:21:48.109Z,23
2018-06-16T13:22:47.978Z,22.8
2018-06-16T13:23:48.550Z,22.6
2018-06-16T13:24:48.915Z,22.5
2018-06-16T13:25:49.089Z,22.5
2018-06-16T13:26:49.016Z,22.4
2018-06-16T13:27:48.915Z,22.5
2018-06-16T13:28:48.794Z,22.5
2018-06-16T13:29:48.726Z,22.6
2018-06-16T13:30:48.856Z,22.7
2018-06-16T13:31:48.753Z,22.7
2018-06-16T13:32:48.641Z,22.5
2018-06-16T13:33:48.920Z,22.4
2018-06-16T13:34:48.809Z,22.5
2018-06-16T13:35:48.709Z,22.6